sensor_id;sensor_type;location;lat;lon;timestamp;pressure;altitude;pressure_sealevel;temperature;humidity
72024;BME280;59889;50.700;5.440;2023-03-14T00:01:12;97669.87;;;20.72;35.29
72024;BME280;59889;50.700;5.440;2023-03-14T00:03:35;97672.25;;;21.06;35.18
72024;BME280;59889;50.700;5.440;2023-03-14T00:06:02;97681.29;;;21.05;35.18
72024;BME280;59889;50.700;5.440;2023-03-14T00:08:25;97686.84;;;20.97;35.31
72024;BME280;59889;50.700;5.440;2023-03-14T00:10:50;97685.94;;;20.57;35.50
72024;BME280;59889;50.700;5.440;2023-03-14T00:13:15;97691.35;;;20.95;35.35
72024;BME280;59889;50.700;5.440;2023-03-14T00:15:40;97692.92;;;20.67;35.39
72024;BME280;59889;50.700;5.440;2023-03-14T00:18:06;97693.06;;;20.74;35.27
72024;BME280;59889;50.700;5.440;2023-03-14T00:20:31;97686.67;;;20.91;35.37
72024;BME280;59889;50.700;5.440;2023-03-14T00:22:56;97684.20;;;20.92;35.35
72024;BME280;59889;50.700;5.440;2023-03-14T00:25:21;97682.09;;;20.83;35.47
72024;BME280;59889;50.700;5.440;2023-03-14T00:27:46;97687.77;;;20.83;35.46
72024;BME280;59889;50.700;5.440;2023-03-14T00:30:12;97690.77;;;21.00;35.25
72024;BME280;59889;50.700;5.440;2023-03-14T00:32:36;97694.23;;;21.04;35.20
72024;BME280;59889;50.700;5.440;2023-03-14T00:35:02;97695.51;;;20.75;35.26
72024;BME280;59889;50.700;5.440;2023-03-14T00:37:27;97696.28;;;20.63;35.44
72024;BME280;59889;50.700;5.440;2023-03-14T00:39:52;97699.72;;;21.01;35.23
72024;BME280;59889;50.700;5.440;2023-03-14T00:42:17;97708.04;;;21.13;35.39
72024;BME280;59889;50.700;5.440;2023-03-14T00:44:42;97707.27;;;20.57;35.49
72024;BME280;59889;50.700;5.440;2023-03-14T00:47:07;97702.86;;;20.65;35.42
72024;BME280;59889;50.700;5.440;2023-03-14T00:49:32;97701.70;;;20.78;35.24
72024;BME280;59889;50.700;5.440;2023-03-14T00:51:57;97700.04;;;20.86;35.13
72024;BME280;59889;50.700;5.440;2023-03-14T00:54:22;97690.61;;;21.01;35.22
72024;BME280;59889;50.700;5.440;2023-03-14T00:56:47;97687.64;;;20.83;35.18
72024;BME280;59889;50.700;5.440;2023-03-14T00:59:12;97681.25;;;21.14;35.39
72024;BME280;59889;50.700;5.440;2023-03-14T01:01:38;97668.30;;;20.84;35.45
72024;BME280;59889;50.700;5.440;2023-03-14T01:04:03;97662.57;;;20.55;35.50
72024;BME280;59889;50.700;5.440;2023-03-14T01:06:29;97658.45;;;20.67;35.34
72024;BME280;59889;50.700;5.440;2023-03-14T01:08:54;97650.07;;;20.88;35.69
72024;BME280;59889;50.700;5.440;2023-03-14T01:11:21;97643.76;;;20.95;35.30
72024;BME280;59889;50.700;5.440;2023-03-14T01:13:43;97639.99;;;20.74;35.25
72024;BME280;59889;50.700;5.440;2023-03-14T01:16:09;97633.89;;;20.52;35.56
72024;BME280;59889;50.700;5.440;2023-03-14T01:18:34;97625.70;;;20.62;35.79
72024;BME280;59889;50.700;5.440;2023-03-14T01:20:58;97620.03;;;20.53;35.90
72024;BME280;59889;50.700;5.440;2023-03-14T01:23:23;97619.24;;;21.02;35.26
72024;BME280;59889;50.700;5.440;2023-03-14T01:25:48;97620.64;;;20.51;35.60
72024;BME280;59889;50.700;5.440;2023-03-14T01:28:13;97618.93;;;20.44;35.73
72024;BME280;59889;50.700;5.440;2023-03-14T01:30:38;97615.00;;;20.75;35.59
72024;BME280;59889;50.700;5.440;2023-03-14T01:33:03;97609.87;;;20.97;35.29
72024;BME280;59889;50.700;5.440;2023-03-14T01:35:28;97602.55;;;20.59;35.85
72024;BME280;59889;50.700;5.440;2023-03-14T01:37:54;97602.33;;;20.79;35.25
72024;BME280;59889;50.700;5.440;2023-03-14T01:40:19;97606.39;;;20.45;35.70
72024;BME280;59889;50.700;5.440;2023-03-14T01:42:46;97610.47;;;20.37;35.80
72024;BME280;59889;50.700;5.440;2023-03-14T01:47:34;97615.38;;;20.66;35.44
72024;BME280;59889;50.700;5.440;2023-03-14T01:50:03;97616.22;;;20.67;35.45
72024;BME280;59889;50.700;5.440;2023-03-14T01:52:27;97605.01;;;20.63;35.47
72024;BME280;59889;50.700;5.440;2023-03-14T01:54:52;97599.28;;;20.63;35.49
72024;BME280;59889;50.700;5.440;2023-03-14T01:57:17;97602.80;;;20.52;35.60
72024;BME280;59889;50.700;5.440;2023-03-14T01:59:42;97608.43;;;20.56;35.54
72024;BME280;59889;50.700;5.440;2023-03-14T02:02:06;97603.94;;;20.79;35.25
72024;BME280;59889;50.700;5.440;2023-03-14T02:04:32;97605.21;;;20.72;35.33
72024;BME280;59889;50.700;5.440;2023-03-14T02:06:59;97602.28;;;20.36;35.82
72024;BME280;59889;50.700;5.440;2023-03-14T02:09:20;97604.17;;;20.61;35.52
72024;BME280;59889;50.700;5.440;2023-03-14T02:11:45;97601.48;;;20.97;35.35
72024;BME280;59889;50.700;5.440;2023-03-14T02:14:17;97602.56;;;20.93;35.37
72024;BME280;59889;50.700;5.440;2023-03-14T02:16:35;97602.13;;;20.85;35.19
72024;BME280;59889;50.700;5.440;2023-03-14T02:19:00;97604.40;;;21.10;35.16
72024;BME280;59889;50.700;5.440;2023-03-14T02:21:36;97602.51;;;21.15;35.11
72024;BME280;59889;50.700;5.440;2023-03-14T02:23:59;97595.45;;;21.06;35.19
72024;BME280;59889;50.700;5.440;2023-03-14T02:26:21;97590.10;;;21.04;35.23
72024;BME280;59889;50.700;5.440;2023-03-14T02:28:41;97587.22;;;20.62;35.49
72024;BME280;59889;50.700;5.440;2023-03-14T02:31:06;97595.28;;;20.88;35.15
72024;BME280;59889;50.700;5.440;2023-03-14T02:33:31;97588.25;;;20.66;35.44
72024;BME280;59889;50.700;5.440;2023-03-14T02:35:58;97591.33;;;20.73;35.33
72024;BME280;59889;50.700;5.440;2023-03-14T02:38:26;97586.29;;;20.83;35.24
72024;BME280;59889;50.700;5.440;2023-03-14T02:40:46;97584.16;;;20.52;35.61
72024;BME280;59889;50.700;5.440;2023-03-14T02:43:11;97581.02;;;20.64;35.45
72024;BME280;59889;50.700;5.440;2023-03-14T02:45:41;97577.92;;;20.83;35.49
72024;BME280;59889;50.700;5.440;2023-03-14T02:48:05;97575.43;;;20.67;35.47
72024;BME280;59889;50.700;5.440;2023-03-14T02:50:29;97570.59;;;20.82;35.24
72024;BME280;59889;50.700;5.440;2023-03-14T02:52:52;97571.51;;;20.70;35.38
72024;BME280;59889;50.700;5.440;2023-03-14T02:55:20;97572.16;;;21.11;35.17
72024;BME280;59889;50.700;5.440;2023-03-14T02:57:42;97571.87;;;21.00;35.30
72024;BME280;59889;50.700;5.440;2023-03-14T03:00:08;97569.43;;;20.86;35.17
72024;BME280;59889;50.700;5.440;2023-03-14T03:02:32;97568.43;;;20.92;35.41
72024;BME280;59889;50.700;5.440;2023-03-14T03:04:57;97568.20;;;21.24;35.29
72024;BME280;59889;50.700;5.440;2023-03-14T03:07:22;97571.94;;;20.87;35.47
72024;BME280;59889;50.700;5.440;2023-03-14T03:09:47;97568.33;;;20.72;35.35
72024;BME280;59889;50.700;5.440;2023-03-14T03:12:12;97565.43;;;20.84;35.52
72024;BME280;59889;50.700;5.440;2023-03-14T03:14:37;97559.71;;;20.93;35.39
72024;BME280;59889;50.700;5.440;2023-03-14T03:17:02;97558.62;;;20.71;35.37
72024;BME280;59889;50.700;5.440;2023-03-14T03:19:27;97552.00;;;20.95;35.41
72024;BME280;59889;50.700;5.440;2023-03-14T03:21:53;97550.66;;;21.10;35.20
72024;BME280;59889;50.700;5.440;2023-03-14T03:24:18;97541.97;;;20.74;35.31
72024;BME280;59889;50.700;5.440;2023-03-14T03:26:43;97539.32;;;20.76;35.33
72024;BME280;59889;50.700;5.440;2023-03-14T03:29:08;97536.03;;;20.81;35.19
72024;BME280;59889;50.700;5.440;2023-03-14T03:31:33;97539.14;;;20.94;35.34
72024;BME280;59889;50.700;5.440;2023-03-14T03:33:58;97539.20;;;21.04;35.27
72024;BME280;59889;50.700;5.440;2023-03-14T03:36:24;97539.06;;;21.00;35.32
72024;BME280;59889;50.700;5.440;2023-03-14T03:38:48;97530.33;;;20.79;35.25
72024;BME280;59889;50.700;5.440;2023-03-14T03:41:13;97530.87;;;20.85;35.26
72024;BME280;59889;50.700;5.440;2023-03-14T03:43:38;97526.05;;;21.06;35.25
72024;BME280;59889;50.700;5.440;2023-03-14T03:46:04;97533.40;;;21.15;35.42
72024;BME280;59889;50.700;5.440;2023-03-14T03:48:28;97533.54;;;20.71;35.34
72024;BME280;59889;50.700;5.440;2023-03-14T03:50:53;97531.29;;;20.73;35.35
72024;BME280;59889;50.700;5.440;2023-03-14T03:53:19;97528.58;;;21.08;35.20
72024;BME280;59889;50.700;5.440;2023-03-14T03:55:44;97529.20;;;20.82;35.26
72024;BME280;59889;50.700;5.440;2023-03-14T03:58:09;97535.32;;;21.09;35.20
72024;BME280;59889;50.700;5.440;2023-03-14T04:00:34;97530.93;;;21.00;35.29
72024;BME280;59889;50.700;5.440;2023-03-14T04:02:59;97537.09;;;20.74;35.30
72024;BME280;59889;50.700;5.440;2023-03-14T04:05:24;97529.65;;;21.12;35.15
72024;BME280;59889;50.700;5.440;2023-03-14T04:07:49;97527.17;;;20.88;35.42
72024;BME280;59889;50.700;5.440;2023-03-14T04:10:14;97528.95;;;20.99;35.31
72024;BME280;59889;50.700;5.440;2023-03-14T04:12:39;97528.99;;;20.81;35.24
72024;BME280;59889;50.700;5.440;2023-03-14T04:15:05;97528.42;;;21.09;35.19
72024;BME280;59889;50.700;5.440;2023-03-14T04:17:29;97530.61;;;20.78;35.28
72024;BME280;59889;50.700;5.440;2023-03-14T04:19:54;97528.39;;;20.97;35.31
72024;BME280;59889;50.700;5.440;2023-03-14T04:22:20;97530.41;;;20.99;35.33
72024;BME280;59889;50.700;5.440;2023-03-14T04:24:45;97533.37;;;20.86;35.20
72024;BME280;59889;50.700;5.440;2023-03-14T04:27:10;97531.80;;;20.88;35.13
72024;BME280;59889;50.700;5.440;2023-03-14T04:29:35;97529.72;;;20.58;35.55
72024;BME280;59889;50.700;5.440;2023-03-14T04:32:00;97527.12;;;21.02;35.26
72024;BME280;59889;50.700;5.440;2023-03-14T04:34:25;97522.66;;;20.79;35.29
72024;BME280;59889;50.700;5.440;2023-03-14T04:36:50;97523.02;;;21.02;35.27
72024;BME280;59889;50.700;5.440;2023-03-14T04:39:15;97521.80;;;20.77;35.27
72024;BME280;59889;50.700;5.440;2023-03-14T04:41:40;97517.56;;;20.77;35.30
72024;BME280;59889;50.700;5.440;2023-03-14T04:44:05;97515.64;;;20.85;35.18
72024;BME280;59889;50.700;5.440;2023-03-14T04:46:30;97514.31;;;21.03;35.26
72024;BME280;59889;50.700;5.440;2023-03-14T04:48:55;97511.00;;;20.83;35.21
72024;BME280;59889;50.700;5.440;2023-03-14T04:51:20;97508.37;;;21.21;35.31
72024;BME280;59889;50.700;5.440;2023-03-14T04:53:45;97501.99;;;21.22;35.29
72024;BME280;59889;50.700;5.440;2023-03-14T04:56:10;97500.61;;;20.79;35.25
72024;BME280;59889;50.700;5.440;2023-03-14T04:58:36;97500.88;;;20.79;35.24
72024;BME280;59889;50.700;5.440;2023-03-14T05:01:02;97498.29;;;20.85;35.15
72024;BME280;59889;50.700;5.440;2023-03-14T05:03:26;97491.90;;;21.03;35.25
72024;BME280;59889;50.700;5.440;2023-03-14T05:05:51;97491.85;;;20.72;35.30
72024;BME280;59889;50.700;5.440;2023-03-14T05:08:16;97492.98;;;21.06;36.15
72024;BME280;59889;50.700;5.440;2023-03-14T05:10:41;97489.94;;;20.67;36.47
72024;BME280;59889;50.700;5.440;2023-03-14T05:13:06;97491.40;;;20.69;36.36
72024;BME280;59889;50.700;5.440;2023-03-14T05:15:31;97490.93;;;20.61;36.32
72024;BME280;59889;50.700;5.440;2023-03-14T05:17:56;97490.64;;;21.07;36.24
72024;BME280;59889;50.700;5.440;2023-03-14T05:20:21;97486.27;;;21.00;36.09
72024;BME280;59889;50.700;5.440;2023-03-14T05:22:46;97485.52;;;21.01;36.06
72024;BME280;59889;50.700;5.440;2023-03-14T05:25:12;97484.86;;;21.00;35.96
72024;BME280;59889;50.700;5.440;2023-03-14T05:27:37;97482.50;;;20.74;35.86
72024;BME280;59889;50.700;5.440;2023-03-14T05:30:03;97484.40;;;20.72;35.79
72024;BME280;59889;50.700;5.440;2023-03-14T05:32:27;97485.88;;;20.94;35.78
72024;BME280;59889;50.700;5.440;2023-03-14T05:34:52;97484.09;;;20.94;36.12
72024;BME280;59889;50.700;5.440;2023-03-14T05:37:17;97481.61;;;20.68;36.36
72024;BME280;59889;50.700;5.440;2023-03-14T05:39:42;97481.93;;;20.50;36.34
72024;BME280;59889;50.700;5.440;2023-03-14T05:42:07;97481.48;;;20.71;36.44
72024;BME280;59889;50.700;5.440;2023-03-14T05:44:32;97483.39;;;20.73;36.45
72024;BME280;59889;50.700;5.440;2023-03-14T05:46:57;97479.98;;;20.61;36.52
72024;BME280;59889;50.700;5.440;2023-03-14T05:49:22;97481.01;;;20.94;36.44
72024;BME280;59889;50.700;5.440;2023-03-14T05:51:47;97482.15;;;20.69;36.48
72024;BME280;59889;50.700;5.440;2023-03-14T05:54:13;97478.22;;;20.44;36.68
72024;BME280;59889;50.700;5.440;2023-03-14T05:56:38;97477.19;;;20.70;36.81
72024;BME280;59889;50.700;5.440;2023-03-14T05:59:03;97476.51;;;20.46;36.87
72024;BME280;59889;50.700;5.440;2023-03-14T06:01:28;97477.43;;;20.91;36.84
72024;BME280;59889;50.700;5.440;2023-03-14T06:03:53;97481.78;;;20.66;36.88
72024;BME280;59889;50.700;5.440;2023-03-14T06:06:18;97476.58;;;20.41;36.88
72024;BME280;59889;50.700;5.440;2023-03-14T06:08:43;97477.17;;;20.85;36.91
72024;BME280;59889;50.700;5.440;2023-03-14T06:11:08;97476.42;;;20.39;36.90
72024;BME280;59889;50.700;5.440;2023-03-14T06:13:33;97473.81;;;20.66;36.81
72024;BME280;59889;50.700;5.440;2023-03-14T06:15:58;97474.39;;;20.67;36.82
72024;BME280;59889;50.700;5.440;2023-03-14T06:18:23;97473.43;;;20.87;36.81
72024;BME280;59889;50.700;5.440;2023-03-14T06:20:48;97474.61;;;20.88;36.77
72024;BME280;59889;50.700;5.440;2023-03-14T06:23:13;97474.69;;;20.61;36.84
72024;BME280;59889;50.700;5.440;2023-03-14T06:25:38;97472.90;;;20.68;36.78
72024;BME280;59889;50.700;5.440;2023-03-14T06:28:03;97472.69;;;20.37;36.92
72024;BME280;59889;50.700;5.440;2023-03-14T06:30:29;97474.62;;;20.57;36.98
72024;BME280;59889;50.700;5.440;2023-03-14T06:32:54;97473.49;;;20.36;36.90
72024;BME280;59889;50.700;5.440;2023-03-14T06:35:19;97476.80;;;20.91;36.76
72024;BME280;59889;50.700;5.440;2023-03-14T06:37:44;97477.60;;;20.39;36.87
72024;BME280;59889;50.700;5.440;2023-03-14T06:40:11;97477.06;;;20.82;36.96
72024;BME280;59889;50.700;5.440;2023-03-14T06:42:35;97483.43;;;20.65;36.98
72024;BME280;59889;50.700;5.440;2023-03-14T06:44:59;97484.37;;;20.93;36.94
72024;BME280;59889;50.700;5.440;2023-03-14T06:47:24;97488.30;;;20.70;36.92
72024;BME280;59889;50.700;5.440;2023-03-14T06:49:49;97490.89;;;20.71;36.89
72024;BME280;59889;50.700;5.440;2023-03-14T06:52:14;97489.24;;;20.92;36.94
72024;BME280;59889;50.700;5.440;2023-03-14T06:54:39;97493.25;;;20.67;36.97
72024;BME280;59889;50.700;5.440;2023-03-14T06:57:04;97498.21;;;20.94;36.88
72024;BME280;59889;50.700;5.440;2023-03-14T06:59:30;97499.80;;;20.65;36.91
72024;BME280;59889;50.700;5.440;2023-03-14T07:01:55;97499.05;;;20.68;36.83
72024;BME280;59889;50.700;5.440;2023-03-14T07:04:20;97504.66;;;20.67;36.88
72024;BME280;59889;50.700;5.440;2023-03-14T07:06:45;97512.38;;;20.67;36.82
72024;BME280;59889;50.700;5.440;2023-03-14T07:09:11;97516.12;;;20.44;36.82
72024;BME280;59889;50.700;5.440;2023-03-14T07:11:35;97518.01;;;20.47;36.76
72024;BME280;59889;50.700;5.440;2023-03-14T07:14:01;97521.09;;;20.51;36.72
72024;BME280;59889;50.700;5.440;2023-03-14T07:16:26;97524.79;;;20.86;36.54
72024;BME280;59889;50.700;5.440;2023-03-14T07:18:51;97533.52;;;20.73;36.68
72024;BME280;59889;50.700;5.440;2023-03-14T07:21:16;97538.16;;;20.70;36.72
72024;BME280;59889;50.700;5.440;2023-03-14T07:23:41;97545.61;;;20.43;36.75
72024;BME280;59889;50.700;5.440;2023-03-14T07:26:06;97548.19;;;20.65;36.77
72024;BME280;59889;50.700;5.440;2023-03-14T07:28:31;97553.27;;;20.86;36.77
72024;BME280;59889;50.700;5.440;2023-03-14T07:30:56;97556.66;;;20.37;36.79
72024;BME280;59889;50.700;5.440;2023-03-14T07:33:21;97556.29;;;20.85;36.70
72024;BME280;59889;50.700;5.440;2023-03-14T07:35:47;97562.05;;;20.79;36.80
72024;BME280;59889;50.700;5.440;2023-03-14T07:38:11;97560.69;;;20.80;36.77
72024;BME280;59889;50.700;5.440;2023-03-14T07:40:36;97563.85;;;20.62;36.69
72024;BME280;59889;50.700;5.440;2023-03-14T07:43:01;97567.55;;;20.82;36.73
72024;BME280;59889;50.700;5.440;2023-03-14T07:45:27;97574.88;;;20.80;36.74
72024;BME280;59889;50.700;5.440;2023-03-14T07:47:52;97567.76;;;20.57;36.70
72024;BME280;59889;50.700;5.440;2023-03-14T07:50:17;97569.78;;;20.58;36.67
72024;BME280;59889;50.700;5.440;2023-03-14T07:52:42;97574.18;;;20.59;36.66
72024;BME280;59889;50.700;5.440;2023-03-14T07:55:08;97575.84;;;20.55;36.71
72024;BME280;59889;50.700;5.440;2023-03-14T07:57:32;97582.71;;;20.81;36.64
72024;BME280;59889;50.700;5.440;2023-03-14T07:59:57;97588.82;;;20.57;36.71
72024;BME280;59889;50.700;5.440;2023-03-14T08:02:22;97593.79;;;20.55;36.72
72024;BME280;59889;50.700;5.440;2023-03-14T08:04:47;97600.20;;;20.36;36.62
72024;BME280;59889;50.700;5.440;2023-03-14T08:07:12;97608.93;;;20.56;36.65
72024;BME280;59889;50.700;5.440;2023-03-14T08:09:37;97685.81;;;20.59;36.61
72024;BME280;59889;50.700;5.440;2023-03-14T08:12:03;97701.19;;;20.84;36.58
72024;BME280;59889;50.700;5.440;2023-03-14T08:14:27;97711.13;;;20.31;36.64
72024;BME280;59889;50.700;5.440;2023-03-14T08:16:53;97724.36;;;20.81;36.45
72024;BME280;59889;50.700;5.440;2023-03-14T08:19:18;97726.21;;;20.51;36.37
72024;BME280;59889;50.700;5.440;2023-03-14T08:21:43;97743.97;;;20.79;36.21
72024;BME280;59889;50.700;5.440;2023-03-14T08:24:08;97753.95;;;20.53;36.21
72024;BME280;59889;50.700;5.440;2023-03-14T08:26:33;97765.65;;;20.29;36.11
72024;BME280;59889;50.700;5.440;2023-03-14T08:28:58;97775.16;;;20.73;36.17
72024;BME280;59889;50.700;5.440;2023-03-14T08:31:23;97790.70;;;20.76;36.30
72024;BME280;59889;50.700;5.440;2023-03-14T08:33:48;97802.98;;;20.76;36.29
72024;BME280;59889;50.700;5.440;2023-03-14T08:36:13;97807.82;;;20.79;36.16
72024;BME280;59889;50.700;5.440;2023-03-14T08:38:38;97816.01;;;20.49;36.18
72024;BME280;59889;50.700;5.440;2023-03-14T08:41:04;97826.12;;;20.52;36.10
72024;BME280;59889;50.700;5.440;2023-03-14T08:43:29;97840.38;;;20.45;36.15
72024;BME280;59889;50.700;5.440;2023-03-14T08:45:57;97842.70;;;20.46;36.06
72024;BME280;59889;50.700;5.440;2023-03-14T08:48:19;97864.33;;;20.72;35.93
72024;BME280;59889;50.700;5.440;2023-03-14T08:50:44;97870.52;;;20.46;35.92
72024;BME280;59889;50.700;5.440;2023-03-14T08:53:09;97880.92;;;20.67;35.89
72024;BME280;59889;50.700;5.440;2023-03-14T08:55:34;97889.03;;;20.46;35.80
72024;BME280;59889;50.700;5.440;2023-03-14T08:57:59;97900.63;;;20.60;35.81
72024;BME280;59889;50.700;5.440;2023-03-14T09:00:24;97912.37;;;20.42;35.64
72024;BME280;59889;50.700;5.440;2023-03-14T09:02:50;97913.67;;;20.38;35.64
72024;BME280;59889;50.700;5.440;2023-03-14T09:05:14;97922.36;;;20.63;35.56
72024;BME280;59889;50.700;5.440;2023-03-14T09:07:39;97936.76;;;20.59;35.52
72024;BME280;59889;50.700;5.440;2023-03-14T09:10:05;97946.25;;;20.58;35.53
72024;BME280;59889;50.700;5.440;2023-03-14T09:12:29;97958.24;;;20.60;35.43
72024;BME280;59889;50.700;5.440;2023-03-14T09:14:54;97966.04;;;20.90;35.30
72024;BME280;59889;50.700;5.440;2023-03-14T09:17:20;97973.41;;;20.60;35.34
72024;BME280;59889;50.700;5.440;2023-03-14T09:19:45;97981.81;;;20.64;35.27
72024;BME280;59889;50.700;5.440;2023-03-14T09:22:10;97991.27;;;20.40;35.22
72024;BME280;59889;50.700;5.440;2023-03-14T09:24:35;98003.04;;;20.65;35.20
72024;BME280;59889;50.700;5.440;2023-03-14T09:27:00;98005.92;;;20.64;35.15
72024;BME280;59889;50.700;5.440;2023-03-14T09:29:25;98010.44;;;20.61;35.15
72024;BME280;59889;50.700;5.440;2023-03-14T09:31:50;98022.08;;;20.56;35.16
72024;BME280;59889;50.700;5.440;2023-03-14T09:34:15;98033.70;;;20.40;35.44
72024;BME280;59889;50.700;5.440;2023-03-14T09:36:40;98039.31;;;20.32;35.15
72024;BME280;59889;50.700;5.440;2023-03-14T09:39:05;98043.69;;;20.57;35.11
72024;BME280;59889;50.700;5.440;2023-03-14T09:41:33;98055.61;;;20.60;35.01
72024;BME280;59889;50.700;5.440;2023-03-14T09:44:01;98069.24;;;20.60;34.98
72024;BME280;59889;50.700;5.440;2023-03-14T09:46:21;98076.88;;;20.84;34.89
72024;BME280;59889;50.700;5.440;2023-03-14T09:48:46;98085.12;;;20.31;34.94
72024;BME280;59889;50.700;5.440;2023-03-14T09:51:14;98088.84;;;20.54;34.93
72024;BME280;59889;50.700;5.440;2023-03-14T09:53:40;98098.49;;;20.53;34.91
72024;BME280;59889;50.700;5.440;2023-03-14T09:56:01;98107.38;;;20.54;34.84
72024;BME280;59889;50.700;5.440;2023-03-14T09:58:26;98115.22;;;20.54;34.85
72024;BME280;59889;50.700;5.440;2023-03-14T10:00:53;98123.00;;;20.54;34.76
72024;BME280;59889;50.700;5.440;2023-03-14T10:03:25;98135.09;;;20.53;34.72
72024;BME280;59889;50.700;5.440;2023-03-14T10:05:41;98144.90;;;20.57;34.60
72024;BME280;59889;50.700;5.440;2023-03-14T10:08:10;98152.41;;;20.52;34.59
72024;BME280;59889;50.700;5.440;2023-03-14T10:10:32;98161.27;;;20.28;34.58
72024;BME280;59889;50.700;5.440;2023-03-14T10:12:58;98166.92;;;20.32;34.51
72024;BME280;59889;50.700;5.440;2023-03-14T10:15:25;98175.75;;;20.54;34.46
72024;BME280;59889;50.700;5.440;2023-03-14T10:17:48;98183.15;;;20.24;34.48
72024;BME280;59889;50.700;5.440;2023-03-14T10:20:26;98188.36;;;20.27;34.40
72024;BME280;59889;50.700;5.440;2023-03-14T10:22:37;98203.24;;;20.75;34.32
72024;BME280;59889;50.700;5.440;2023-03-14T10:25:04;98208.69;;;20.47;34.36
72024;BME280;59889;50.700;5.440;2023-03-14T10:27:29;98219.09;;;20.47;34.36
72024;BME280;59889;50.700;5.440;2023-03-14T10:29:54;98228.97;;;20.44;34.37
72024;BME280;59889;50.700;5.440;2023-03-14T10:32:20;98239.80;;;20.44;34.34
72024;BME280;59889;50.700;5.440;2023-03-14T10:34:43;98246.42;;;20.45;34.27
72024;BME280;59889;50.700;5.440;2023-03-14T10:37:17;98251.58;;;20.17;34.28
72024;BME280;59889;50.700;5.440;2023-03-14T10:39:39;98268.44;;;20.44;34.26
72024;BME280;59889;50.700;5.440;2023-03-14T10:42:04;98273.82;;;20.41;34.28
72024;BME280;59889;50.700;5.440;2023-03-14T10:44:24;98279.84;;;20.62;34.28
72024;BME280;59889;50.700;5.440;2023-03-14T10:46:55;98280.32;;;20.42;34.29
72024;BME280;59889;50.700;5.440;2023-03-14T10:49:25;98293.76;;;20.45;34.20
72024;BME280;59889;50.700;5.440;2023-03-14T10:51:38;98302.47;;;20.18;34.15
72024;BME280;59889;50.700;5.440;2023-03-14T10:54:12;98302.46;;;20.44;34.12
72024;BME280;59889;50.700;5.440;2023-03-14T10:56:35;98305.10;;;20.23;34.11
72024;BME280;59889;50.700;5.440;2023-03-14T10:58:57;98315.54;;;20.24;34.05
72024;BME280;59889;50.700;5.440;2023-03-14T11:01:32;98321.41;;;20.48;34.03
72024;BME280;59889;50.700;5.440;2023-03-14T11:03:49;98320.88;;;20.29;33.96
72024;BME280;59889;50.700;5.440;2023-03-14T11:06:11;98335.48;;;20.50;33.96
72024;BME280;59889;50.700;5.440;2023-03-14T11:08:39;98342.57;;;20.22;33.94
72024;BME280;59889;50.700;5.440;2023-03-14T11:11:10;98348.70;;;20.28;33.90
72024;BME280;59889;50.700;5.440;2023-03-14T11:13:26;98354.25;;;20.22;34.00
72024;BME280;59889;50.700;5.440;2023-03-14T11:15:57;98366.17;;;20.49;33.88
72024;BME280;59889;50.700;5.440;2023-03-14T11:18:27;98371.83;;;19.94;33.93
72024;BME280;59889;50.700;5.440;2023-03-14T11:20:44;98381.87;;;20.45;33.91
72024;BME280;59889;50.700;5.440;2023-03-14T11:23:12;98384.65;;;20.42;33.90
72024;BME280;59889;50.700;5.440;2023-03-14T11:25:32;98392.48;;;20.42;33.86
72024;BME280;59889;50.700;5.440;2023-03-14T11:28:01;98401.58;;;20.38;33.85
72024;BME280;59889;50.700;5.440;2023-03-14T11:30:23;98414.38;;;20.57;33.80
72024;BME280;59889;50.700;5.440;2023-03-14T11:32:46;98425.28;;;20.32;33.83
72024;BME280;59889;50.700;5.440;2023-03-14T11:35:17;98440.14;;;20.36;33.75
72024;BME280;59889;50.700;5.440;2023-03-14T11:37:38;98445.33;;;20.33;33.74
72024;BME280;59889;50.700;5.440;2023-03-14T11:40:06;98442.59;;;20.31;33.77
72024;BME280;59889;50.700;5.440;2023-03-14T11:42:26;98441.97;;;20.03;33.80
72024;BME280;59889;50.700;5.440;2023-03-14T11:44:51;98454.42;;;20.30;33.64
72024;BME280;59889;50.700;5.440;2023-03-14T11:47:19;98463.54;;;20.04;33.51
72024;BME280;59889;50.700;5.440;2023-03-14T11:49:45;98468.27;;;20.27;33.51
72024;BME280;59889;50.700;5.440;2023-03-14T11:52:11;98469.89;;;20.25;33.51
72024;BME280;59889;50.700;5.440;2023-03-14T11:54:37;98469.26;;;20.45;33.54
72024;BME280;59889;50.700;5.440;2023-03-14T11:56:59;98477.46;;;20.43;33.54
72024;BME280;59889;50.700;5.440;2023-03-14T11:59:26;98482.96;;;20.23;33.53
72024;BME280;59889;50.700;5.440;2023-03-14T12:01:53;98484.72;;;20.24;33.53
72024;BME280;59889;50.700;5.440;2023-03-14T12:04:15;98495.39;;;20.26;33.51
72024;BME280;59889;50.700;5.440;2023-03-14T12:06:41;98497.39;;;19.88;33.60
72024;BME280;59889;50.700;5.440;2023-03-14T12:09:03;98509.92;;;20.29;33.45
72024;BME280;59889;50.700;5.440;2023-03-14T12:11:33;98518.44;;;20.28;33.49
72024;BME280;59889;50.700;5.440;2023-03-14T12:13:53;98520.50;;;20.30;33.46
72024;BME280;59889;50.700;5.440;2023-03-14T12:16:32;98531.17;;;20.30;33.47
72024;BME280;59889;50.700;5.440;2023-03-14T12:18:42;98541.36;;;20.28;33.44
72024;BME280;59889;50.700;5.440;2023-03-14T12:21:08;98548.98;;;20.26;33.39
72024;BME280;59889;50.700;5.440;2023-03-14T12:23:37;98553.35;;;20.19;33.45
72024;BME280;59889;50.700;5.440;2023-03-14T12:26:08;98558.36;;;20.17;33.44
72024;BME280;59889;50.700;5.440;2023-03-14T12:28:30;98567.00;;;19.96;33.30
72024;BME280;59889;50.700;5.440;2023-03-14T12:30:47;98570.71;;;20.15;33.31
72024;BME280;59889;50.700;5.440;2023-03-14T12:33:28;98570.54;;;20.16;33.25
72024;BME280;59889;50.700;5.440;2023-03-14T12:35:39;98573.46;;;20.16;33.21
72024;BME280;59889;50.700;5.440;2023-03-14T12:38:03;98577.21;;;20.20;33.19
72024;BME280;59889;50.700;5.440;2023-03-14T12:40:31;98584.01;;;20.21;33.22
72024;BME280;59889;50.700;5.440;2023-03-14T12:42:57;98586.95;;;20.20;33.23
72024;BME280;59889;50.700;5.440;2023-03-14T12:45:24;98585.82;;;20.19;33.26
72024;BME280;59889;50.700;5.440;2023-03-14T12:47:53;98591.28;;;20.18;33.26
72024;BME280;59889;50.700;5.440;2023-03-14T12:50:14;98603.06;;;20.24;33.19